Time;durP1;ratioP1;P1;durP2;ratioP2;P2;SDS_P1;SDS_P2;PMS_P1;PMS_P2;Temp;Humidity;BMP_temperature;BMP_pressure;BME280_temperature;BME280_humidity;BME280_pressure;Samples;Min_cycle;Max_cycle;Signal;HPM_P1;HPM_P2
2022/04/06 00:02:53;;;;;;;33.15;18.35;;;;;;;7.43;89.22;99204.72;8546671;33;20601;-76
2022/04/06 00:07:58;;;;;;;25.40;14.02;;;;;;;7.25;89.42;99200.94;8551868;33;20448;-78
2022/04/06 00:13:01;;;;;;;35.30;18.58;;;;;;;7.44;89.48;99201.03;8548117;33;20144;-78
2022/04/06 00:18:05;;;;;;;30.92;15.38;;;;;;;7.53;89.18;99194.03;8550388;33;20243;-78
2022/04/06 00:23:09;;;;;;;33.00;17.13;;;;;;;7.48;89.62;99186.41;8545053;33;20613;-78
2022/04/06 00:28:12;;;;;;;41.10;15.02;;;;;;;7.40;89.42;99175.56;8547209;33;20432;-78
2022/04/06 00:33:15;;;;;;;40.03;17.42;;;;;;;7.22;89.59;99182.50;8544855;33;20446;-78
2022/04/06 00:38:20;;;;;;;37.35;18.80;;;;;;;7.32;89.71;99180.72;8545775;33;20548;-78
2022/04/06 00:43:23;;;;;;;38.22;18.80;;;;;;;7.29;89.53;99183.66;8550807;33;20194;-78
2022/04/06 00:48:26;;;;;;;33.90;16.48;;;;;;;7.17;90.18;99174.06;8550261;33;20406;-78
2022/04/06 00:53:31;;;;;;;39.20;17.80;;;;;;;7.32;88.98;99179.88;8551200;33;20445;-78
2022/04/06 00:58:34;;;;;;;50.67;21.88;;;;;;;7.47;88.28;99167.88;8545656;33;20193;-77
2022/04/06 01:03:37;;;;;;;39.10;19.05;;;;;;;7.30;89.10;99160.50;8542517;33;20487;-78
2022/04/06 01:08:42;;;;;;;33.60;15.75;;;;;;;7.37;88.36;99158.97;8547606;33;20522;-78
2022/04/06 01:13:46;;;;;;;40.38;20.55;;;;;;;7.38;88.54;99153.50;8545484;33;20402;-78
2022/04/06 01:18:49;;;;;;;42.47;22.13;;;;;;;7.55;87.75;99152.00;8545887;33;20191;-78
2022/04/06 01:23:53;;;;;;;49.92;24.88;;;;;;;7.46;88.33;99150.13;8545742;33;20180;-78
2022/04/06 01:28:57;;;;;;;35.90;14.63;;;;;;;7.25;88.17;99131.50;8547375;33;20426;-78
2022/04/06 01:34:00;;;;;;;38.78;20.27;;;;;;;7.27;88.33;99150.91;8550221;33;20393;-77
2022/04/06 01:39:04;;;;;;;44.15;22.20;;;;;;;7.33;87.88;99138.84;8549617;33;20394;-78
2022/04/06 01:44:08;;;;;;;47.47;22.27;;;;;;;7.41;87.43;99141.69;8546886;33;20412;-78
2022/04/06 01:54:33;;;;;;;33.35;16.83;;;;;;;7.15;87.90;99109.22;8545986;33;20532;-78
2022/04/06 01:59:36;;;;;;;48.53;21.65;;;;;;;7.38;87.49;99124.09;8549382;33;20156;-78
2022/04/06 02:04:39;;;;;;;38.03;18.58;;;;;;;7.32;87.03;99129.97;8549116;33;20186;-78
2022/04/06 02:09:44;;;;;;;42.78;18.73;;;;;;;7.45;86.97;99124.41;8548141;33;20982;-77
2022/04/06 02:14:47;;;;;;;57.00;26.40;;;;;;;7.42;87.22;99124.69;8548530;33;20186;-77
2022/04/06 02:19:50;;;;;;;52.08;25.60;;;;;;;7.15;88.06;99128.78;8548804;33;20229;-78
2022/04/06 02:24:55;;;;;;;46.60;19.48;;;;;;;7.17;87.79;99125.97;8544648;33;20673;-78
2022/04/06 02:29:59;;;;;;;49.28;22.77;;;;;;;7.21;87.43;99108.69;8545360;33;20457;-77
2022/04/06 02:35:02;;;;;;;54.80;26.60;;;;;;;7.32;86.65;99105.91;8544082;33;20652;-76
2022/04/06 02:40:08;;;;;;;45.70;20.48;;;;;;;7.17;86.29;99107.28;8544222;33;20156;-76
2022/04/06 02:45:11;;;;;;;42.05;23.65;;;;;;;7.32;85.72;99113.09;8551828;33;20152;-78
2022/04/06 02:50:21;;;;;;;50.22;23.65;;;;;;;7.40;85.49;99107.94;8551090;33;22054;-77
2022/04/06 02:55:25;;;;;;;44.28;20.35;;;;;;;7.17;86.21;99105.44;8547348;33;20144;-77
2022/04/06 03:00:32;;;;;;;31.60;14.43;;;;;;;7.08;86.25;99106.25;8546954;33;20424;-77
2022/04/06 03:05:35;;;;;;;46.95;17.13;;;;;;;7.18;85.91;99112.47;8544018;33;20168;-77
2022/04/06 03:10:39;;;;;;;38.85;18.98;;;;;;;7.16;85.70;99109.13;8542462;33;20160;-77
2022/04/06 03:15:43;;;;;;;38.63;19.98;;;;;;;7.41;84.79;99107.81;8540437;33;20417;-77
2022/04/06 03:20:46;;;;;;;35.13;17.35;;;;;;;7.30;85.24;99104.41;8536891;33;20971;-77
2022/04/06 03:25:50;;;;;;;31.63;14.68;;;;;;;7.18;84.90;99093.78;8533565;33;20201;-77
2022/04/06 03:30:53;;;;;;;25.70;12.27;;;;;;;7.05;85.42;99102.03;8487032;33;20531;-77
2022/04/06 03:35:56;;;;;;;17.67;10.32;;;;;;;7.10;85.23;99106.13;8472909;33;20495;-75
2022/04/06 03:41:01;;;;;;;33.53;16.10;;;;;;;7.20;84.80;99091.81;8475503;33;20485;-75
2022/04/06 03:46:04;;;;;;;29.90;14.50;;;;;;;7.06;84.94;99076.19;8474516;33;20136;-76
2022/04/06 03:51:07;;;;;;;32.88;14.13;;;;;;;7.02;84.58;99096.97;8476460;33;20744;-75
2022/04/06 03:56:11;;;;;;;33.28;14.52;;;;;;;7.20;83.70;99083.81;8481185;33;20308;-75
2022/04/06 04:01:15;;;;;;;24.13;12.30;;;;;;;7.24;83.18;99084.38;8482980;33;20954;-75
2022/04/06 04:06:18;;;;;;;29.90;15.48;;;;;;;7.18;83.50;99083.09;8489716;33;20425;-77
2022/04/06 04:11:22;;;;;;;30.70;16.30;;;;;;;7.34;82.54;99071.91;8500370;33;20188;-77
2022/04/06 04:16:25;;;;;;;34.80;17.60;;;;;;;7.08;83.48;99073.38;8498313;33;22388;-77
2022/04/06 04:21:34;;;;;;;26.20;13.05;;;;;;;6.94;83.92;99077.22;8499888;33;20418;-76
2022/04/06 04:26:39;;;;;;;31.83;14.45;;;;;;;6.94;84.04;99071.88;8487975;33;20446;-75
2022/04/06 04:31:42;;;;;;;30.75;14.70;;;;;;;7.15;83.78;99070.03;8488555;33;20630;-77
2022/04/06 04:36:45;;;;;;;44.38;21.60;;;;;;;6.98;84.13;99068.00;8485856;33;20452;-77
2022/04/06 04:41:50;;;;;;;32.25;14.60;;;;;;;6.73;84.92;99079.91;8485183;33;20444;-77
2022/04/06 04:46:53;;;;;;;34.13;15.77;;;;;;;6.93;83.63;99076.38;8486757;33;20171;-77
2022/04/06 04:51:56;;;;;;;35.50;15.18;;;;;;;6.97;83.73;99066.31;8488001;33;20188;-77
2022/04/06 04:57:00;;;;;;;38.97;18.73;;;;;;;7.24;82.35;99066.56;8488725;33;20600;-77
2022/04/06 05:02:05;;;;;;;32.25;15.40;;;;;;;7.20;82.24;99059.78;8485484;33;20812;-77
2022/04/06 05:07:10;;;;;;;28.95;14.35;;;;;;;7.18;82.65;99063.56;8483312;33;20406;-77
2022/04/06 05:12:15;;;;;;;32.85;17.58;;;;;;;6.95;82.43;99062.91;8484170;33;20156;-76
2022/04/06 05:17:18;;;;;;;42.80;21.10;;;;;;;6.97;83.03;99071.66;8485345;33;20409;-76
2022/04/06 05:22:22;;;;;;;41.97;18.65;;;;;;;7.20;81.98;99064.28;8487395;33;20431;-76
2022/04/06 05:27:26;;;;;;;40.00;19.23;;;;;;;7.00;82.12;99058.88;8486334;33;20239;-76
2022/04/06 05:32:29;;;;;;;28.92;12.48;;;;;;;7.06;81.39;99063.66;8478942;33;20468;-76
2022/04/06 05:37:33;;;;;;;36.05;17.92;;;;;;;7.35;80.64;99068.28;8521529;33;20428;-77
2022/04/06 05:42:38;;;;;;;28.38;15.93;;;;;;;7.05;80.82;99067.31;8544549;33;20553;-76
2022/04/06 05:47:42;;;;;;;26.70;12.98;;;;;;;7.19;79.96;99070.63;8544682;33;22625;-76
2022/04/06 05:52:45;;;;;;;29.45;14.20;;;;;;;7.18;79.89;99071.56;8548713;33;20898;-76
2022/04/06 05:57:50;;;;;;;28.50;14.10;;;;;;;7.13;79.89;99063.13;8551027;33;20414;-76
2022/04/06 06:02:53;;;;;;;22.48;11.50;;;;;;;7.01;78.89;99073.06;8545664;33;20570;-76
2022/04/06 06:07:56;;;;;;;21.15;11.73;;;;;;;6.89;79.65;99072.31;8541915;33;20789;-76
2022/04/06 06:13:00;;;;;;;18.52;8.75;;;;;;;7.27;77.76;99079.63;8541908;33;20600;-76
2022/04/06 06:18:04;;;;;;;19.10;9.23;;;;;;;7.16;77.77;99077.06;8540684;33;21846;-76
2022/04/06 06:23:08;;;;;;;16.77;7.50;;;;;;;7.32;76.78;99083.72;8539958;33;20464;-76
2022/04/06 06:28:13;;;;;;;14.95;8.63;;;;;;;7.36;75.91;99077.13;8538886;33;20508;-76
2022/04/06 06:33:16;;;;;;;12.35;6.72;;;;;;;7.26;75.59;99069.91;8541815;33;20148;-76
2022/04/06 06:38:24;;;;;;;14.55;7.78;;;;;;;7.32;75.73;99076.53;8538255;33;21071;-76
2022/04/06 06:43:29;;;;;;;14.05;7.25;;;;;;;7.27;74.74;99063.63;8542866;33;21896;-76
2022/04/06 06:48:32;;;;;;;13.02;6.75;;;;;;;7.35;75.45;99067.41;8545884;33;20135;-75
2022/04/06 06:53:35;;;;;;;12.35;6.53;;;;;;;7.39;73.46;99066.19;8546904;33;20287;-75
2022/04/06 06:58:40;;;;;;;15.55;7.60;;;;;;;7.22;74.21;99057.81;8546705;33;20427;-74
2022/04/06 07:03:43;;;;;;;14.80;8.95;;;;;;;7.63;73.27;99072.00;8546663;33;20144;-73
2022/04/06 07:08:46;;;;;;;11.18;7.03;;;;;;;7.68;72.74;99064.44;8546503;33;20191;-73
2022/04/06 07:13:50;;;;;;;15.52;7.82;;;;;;;7.53;73.16;99062.28;8545256;33;20166;-73
2022/04/06 07:18:53;;;;;;;16.50;7.22;;;;;;;7.81;72.64;99058.78;8572703;33;20478;-74
2022/04/06 07:23:57;;;;;;;16.70;6.95;;;;;;;7.67;71.62;99056.53;8602948;33;20470;-73
2022/04/06 07:29:01;;;;;;;10.52;6.28;;;;;;;7.43;72.93;99051.56;8594874;33;20435;-73
2022/04/06 07:34:05;;;;;;;10.35;5.95;;;;;;;7.46;72.67;99043.25;8593827;33;20865;-74
2022/04/06 07:39:08;;;;;;;9.68;4.97;;;;;;;7.63;71.03;99036.44;8592305;33;20392;-74
2022/04/06 07:44:12;;;;;;;5.68;3.92;;;;;;;7.42;71.97;99034.69;8596251;33;20417;-74
2022/04/06 07:49:15;;;;;;;10.07;4.43;;;;;;;7.53;71.30;99041.75;8593386;33;20143;-74
2022/04/06 07:54:18;;;;;;;9.60;5.70;;;;;;;7.63;70.38;99028.41;8595150;33;20183;-74
2022/04/06 07:59:23;;;;;;;11.88;5.40;;;;;;;7.85;69.79;99027.31;8591953;33;20832;-74
2022/04/06 08:04:26;;;;;;;8.63;3.88;;;;;;;7.30;71.25;99013.59;8591656;33;20403;-74
2022/04/06 08:09:32;;;;;;;6.10;3.03;;;;;;;7.27;70.42;99018.22;8592973;33;21933;-74
2022/04/06 08:14:36;;;;;;;11.45;4.65;;;;;;;7.33;71.14;99026.66;8595343;33;20634;-76
2022/04/06 08:19:39;;;;;;;8.57;5.00;;;;;;;7.38;71.28;99017.25;8601994;33;20480;-74
2022/04/06 08:25:01;;;;;;;9.93;5.60;;;;;;;7.32;72.21;99035.63;8604414;33;20475;-75
2022/04/06 08:30:44;;;;;;;8.48;4.57;;;;;;;7.24;71.70;99020.28;8603135;33;20232;-74
2022/04/06 08:35:57;;;;;;;9.93;4.72;;;;;;;7.47;70.69;99012.91;8602635;33;20976;-74
2022/04/06 08:41:10;;;;;;;11.88;6.75;;;;;;;7.21;71.58;99010.75;8605742;33;20414;-74
2022/04/06 08:46:21;;;;;;;7.85;4.72;;;;;;;7.14;71.58;98996.25;8608850;33;20258;-74
2022/04/06 08:51:25;;;;;;;10.05;6.07;;;;;;;7.27;70.98;98991.50;8603571;33;20516;-74
2022/04/06 08:56:28;;;;;;;8.35;4.93;;;;;;;7.27;69.93;98999.50;8602327;33;20683;-74
2022/04/06 09:01:33;;;;;;;10.95;4.05;;;;;;;7.04;69.24;98950.81;8604129;33;20567;-74
2022/04/06 09:06:40;;;;;;;5.50;3.83;;;;;;;7.55;68.03;98986.34;8599542;33;20411;-74
2022/04/06 09:11:45;;;;;;;6.13;4.15;;;;;;;7.34;66.96;99001.63;8603665;33;22334;-74
2022/04/06 09:17:02;;;;;;;7.50;3.38;;;;;;;7.30;67.33;98989.53;8562483;33;21327;-74
2022/04/06 09:22:08;;;;;;;8.88;4.15;;;;;;;7.50;68.25;98984.06;8560269;33;20455;-74
2022/04/06 09:27:11;;;;;;;8.95;4.78;;;;;;;7.17;68.72;99003.97;8543194;33;20233;-74
2022/04/06 09:32:15;;;;;;;10.40;3.92;;;;;;;7.23;69.15;99013.25;8543263;33;20639;-74
2022/04/06 09:37:37;;;;;;;11.15;4.88;;;;;;;7.40;69.63;99041.13;8542107;33;20144;-74
2022/04/06 09:42:51;;;;;;;7.18;5.88;;;;;;;7.18;70.00;98999.47;8567947;33;20178;-74
2022/04/06 09:47:58;;;;;;;8.00;5.35;;;;;;;7.35;70.33;99003.31;8598944;33;20272;-74
2022/04/06 09:53:04;;;;;;;11.85;5.18;;;;;;;7.30;70.78;99006.41;8605042;33;20415;-74
2022/04/06 09:58:10;;;;;;;7.50;4.75;;;;;;;7.27;71.14;99012.88;8604759;33;20492;-74
2022/04/06 10:03:17;;;;;;;9.15;6.00;;;;;;;7.65;68.86;99011.25;8606478;33;20423;-74
2022/04/06 10:08:22;;;;;;;7.63;4.82;;;;;;;7.40;69.50;99011.75;8604046;33;20166;-74
2022/04/06 10:13:26;;;;;;;13.18;6.70;;;;;;;7.59;69.42;99011.78;8604075;33;20478;-74
2022/04/06 10:18:52;;;;;;;12.15;6.18;;;;;;;7.29;71.40;99018.06;8604383;33;20190;-75
2022/04/06 10:24:11;;;;;;;12.82;7.68;;;;;;;7.47;69.85;99020.91;8606218;33;20621;-74
2022/04/06 10:29:14;;;;;;;14.10;6.95;;;;;;;7.70;70.46;98992.94;8615594;33;20540;-74
2022/04/06 10:34:22;;;;;;;13.93;7.32;;;;;;;7.56;70.38;98987.19;8619586;33;20953;-75
2022/04/06 10:39:25;;;;;;;10.55;5.90;;;;;;;7.57;70.35;98973.69;8618868;33;20421;-74
2022/04/06 10:44:38;;;;;;;13.65;5.65;;;;;;;7.39;70.53;98986.03;8619254;33;20412;-74
2022/04/06 10:49:43;;;;;;;6.80;4.88;;;;;;;7.68;69.93;98980.75;8618880;33;20455;-74
2022/04/06 10:54:46;;;;;;;5.63;3.80;;;;;;;7.44;70.17;98986.47;8611518;33;20155;-74
2022/04/06 11:00:12;;;;;;;8.40;5.43;;;;;;;7.91;68.69;98967.91;8606411;33;20552;-74
2022/04/06 11:05:49;;;;;;;7.72;4.22;;;;;;;7.95;68.25;98964.81;8637277;33;20483;-74
2022/04/06 11:11:31;;;;;;;5.22;4.00;;;;;;;7.98;67.52;98971.72;8603335;33;20404;-74
2022/04/06 11:16:42;;;;;;;6.88;3.88;;;;;;;7.53;68.64;98947.38;8602644;33;20432;-74
2022/04/06 11:21:49;;;;;;;7.55;4.35;;;;;;;7.52;68.24;98975.09;8599080;33;20143;-74
2022/04/06 11:26:52;;;;;;;7.47;3.75;;;;;;;7.67;69.01;98966.50;8597416;33;20418;-73
2022/04/06 11:32:01;;;;;;;7.78;4.10;;;;;;;7.65;68.86;98970.28;8596083;33;20408;-73
2022/04/06 11:37:10;;;;;;;6.88;4.03;;;;;;;7.32;69.97;98977.72;8595849;33;20453;-73
2022/04/06 11:42:17;;;;;;;9.82;5.03;;;;;;;7.69;69.18;98977.06;8597838;33;21100;-73
2022/04/06 11:47:34;;;;;;;6.22;4.70;;;;;;;7.60;69.19;98956.53;8593001;33;20132;-73
2022/04/06 11:52:41;;;;;;;7.78;5.03;;;;;;;8.14;68.67;98945.22;8591760;33;21922;-73
2022/04/06 11:57:45;;;;;;;4.85;3.92;;;;;;;7.95;67.75;98942.56;8590709;33;20186;-74
2022/04/06 12:02:51;;;;;;;9.70;4.38;;;;;;;7.98;68.23;98955.69;8595818;33;20400;-73
2022/04/06 12:08:13;;;;;;;5.18;3.90;;;;;;;7.61;69.49;98928.81;8593183;33;21165;-73
2022/04/06 12:13:17;;;;;;;3.97;3.08;;;;;;;7.39;69.81;98948.63;8594873;33;20593;-73
2022/04/06 12:18:21;;;;;;;4.78;3.72;;;;;;;7.55;70.11;98942.75;8591716;33;20243;-73
2022/04/06 12:23:26;;;;;;;3.67;3.25;;;;;;;7.77;69.48;98925.59;8590969;33;20439;-73
2022/04/06 12:28:30;;;;;;;3.30;3.00;;;;;;;7.71;69.38;98935.00;8592143;33;21141;-74
2022/04/06 12:33:39;;;;;;;4.22;3.17;;;;;;;7.75;69.62;98924.88;8588493;33;20826;-73
2022/04/06 12:38:57;;;;;;;5.63;3.53;;;;;;;7.57;70.77;98925.59;8587633;33;20213;-73
2022/04/06 12:44:03;;;;;;;6.38;4.60;;;;;;;7.54;71.42;98909.81;8588790;33;20453;-74
2022/04/06 12:49:27;;;;;;;7.03;5.25;;;;;;;7.27;72.16;98914.03;8591672;33;20198;-73
2022/04/06 12:54:35;;;;;;;7.82;4.65;;;;;;;7.66;71.73;98903.34;8595302;33;20416;-73
2022/04/06 12:59:41;;;;;;;5.30;4.03;;;;;;;7.77;71.08;98902.38;8601917;33;20747;-74
2022/04/06 13:04:44;;;;;;;8.05;4.75;;;;;;;7.46;72.02;98905.19;8606715;33;20414;-74
2022/04/06 13:09:54;;;;;;;7.40;5.18;;;;;;;8.01;71.57;98896.56;8607300;33;20450;-74
2022/04/06 13:14:58;;;;;;;10.85;6.90;;;;;;;7.27;75.90;98899.84;8608414;33;20191;-74
2022/04/06 13:20:01;;;;;;;10.10;7.60;;;;;;;7.26;77.74;98893.63;8603503;33;20979;-74
2022/04/06 13:25:08;;;;;;;10.07;6.38;;;;;;;7.04;79.57;98894.75;8606279;33;20422;-74
2022/04/06 13:30:12;;;;;;;10.07;6.65;;;;;;;7.08;79.24;98887.31;8622365;33;20354;-74
2022/04/06 13:35:18;;;;;;;9.25;5.55;;;;;;;6.91;81.03;98880.84;8609065;33;20190;-74
2022/04/06 13:40:22;;;;;;;13.98;7.25;;;;;;;6.82;81.35;98862.91;8604669;33;20144;-74
2022/04/06 13:45:26;;;;;;;12.38;8.13;;;;;;;6.84;84.29;98883.16;8605690;33;20416;-75
2022/04/06 13:50:29;;;;;;;7.07;4.30;;;;;;;6.40;84.98;98861.25;8605190;33;20685;-74
2022/04/06 13:55:34;;;;;;;12.27;7.32;;;;;;;6.63;85.07;98874.38;8605779;33;20875;-74
2022/04/06 14:00:37;;;;;;;16.90;9.50;;;;;;;6.59;86.38;98862.31;8608889;33;20255;-73
2022/04/06 14:05:42;;;;;;;13.52;7.55;;;;;;;6.57;87.57;98854.44;8616387;33;20408;-73
2022/04/06 14:10:47;;;;;;;7.05;5.47;;;;;;;6.67;87.07;98848.28;8619912;33;20201;-74
2022/04/06 14:15:51;;;;;;;14.90;9.52;;;;;;;6.95;86.21;98825.34;8620024;33;20413;-73
2022/04/06 14:20:54;;;;;;;14.60;7.50;;;;;;;6.68;86.97;98817.94;8623119;33;20135;-74
2022/04/06 14:25:58;;;;;;;13.07;7.38;;;;;;;6.73;86.48;98823.72;8622874;33;20152;-73
2022/04/06 14:31:01;;;;;;;14.90;6.70;;;;;;;6.57;86.29;98818.91;8625865;33;20794;-73
2022/04/06 14:36:05;;;;;;;11.80;6.30;;;;;;;7.03;85.04;98793.44;8627328;33;20428;-74
2022/04/06 14:41:09;;;;;;;12.23;7.57;;;;;;;6.98;84.74;98793.00;8625019;33;20274;-74
2022/04/06 14:46:12;;;;;;;9.10;5.50;;;;;;;6.60;85.46;98799.97;8620987;33;20447;-73
2022/04/06 14:51:16;;;;;;;11.38;7.10;;;;;;;7.11;84.46;98788.25;8620314;33;20501;-73
2022/04/06 14:56:24;;;;;;;10.13;5.13;;;;;;;6.78;83.83;98784.13;8618700;33;20440;-73
2022/04/06 15:01:27;;;;;;;8.98;5.68;;;;;;;7.04;82.12;98765.75;8606155;33;20687;-73
2022/04/06 15:06:31;;;;;;;5.20;4.25;;;;;;;6.95;81.01;98748.75;8613988;33;21041;-73
2022/04/06 15:11:36;;;;;;;7.63;5.25;;;;;;;7.17;81.47;98755.63;8606767;33;20677;-73
2022/04/06 15:16:39;;;;;;;8.73;5.70;;;;;;;7.22;80.91;98739.19;8602418;33;20139;-74
2022/04/06 15:21:42;;;;;;;8.75;5.35;;;;;;;7.46;80.08;98730.69;8601894;33;20884;-74
2022/04/06 15:26:49;;;;;;;5.80;3.85;;;;;;;7.35;79.14;98731.72;8602125;33;20524;-74
2022/04/06 15:31:52;;;;;;;5.57;4.50;;;;;;;7.69;78.68;98724.00;8601777;33;20152;-74
2022/04/06 15:42:24;;;;;;;4.68;3.58;;;;;;;7.70;77.49;98717.66;8628038;32;20196;-74
2022/04/06 15:47:29;;;;;;;4.25;3.70;;;;;;;7.68;76.89;98705.47;8625878;32;20213;-75
2022/04/06 15:52:32;;;;;;;3.75;2.67;;;;;;;7.65;76.00;98711.94;8599214;33;20185;-75
2022/04/06 15:57:36;;;;;;;4.03;3.05;;;;;;;7.52;75.95;98727.44;8599426;33;20496;-76
2022/04/06 16:02:40;;;;;;;5.47;3.88;;;;;;;7.90;75.26;98698.91;8600119;33;20413;-74
2022/04/06 16:07:43;;;;;;;3.05;2.47;;;;;;;7.64;75.03;98694.22;8600525;33;20591;-74
2022/04/06 16:12:47;;;;;;;3.90;3.50;;;;;;;7.99;73.53;98699.84;8598757;33;20225;-75
2022/04/06 16:17:51;;;;;;;4.72;3.55;;;;;;;8.06;74.30;98696.38;8595730;33;20402;-74
2022/04/06 16:22:54;;;;;;;4.03;3.63;;;;;;;8.05;73.21;98686.69;8602698;33;20186;-74
2022/04/06 16:28:00;;;;;;;3.53;3.22;;;;;;;8.30;72.39;98666.41;8600195;33;20540;-74
2022/04/06 16:33:03;;;;;;;5.15;2.80;;;;;;;7.98;72.62;98682.94;8600981;33;20548;-74
2022/04/06 16:38:07;;;;;;;4.45;2.90;;;;;;;8.28;71.20;98672.91;8604744;33;20435;-74
2022/04/06 16:43:11;;;;;;;4.28;2.72;;;;;;;8.10;71.21;98663.03;8605662;33;20132;-74
2022/04/06 16:48:14;;;;;;;5.22;3.30;;;;;;;8.18;71.07;98665.78;8606064;33;21300;-74
2022/04/06 16:53:18;;;;;;;4.90;3.22;;;;;;;8.42;69.60;98629.59;8606487;33;20489;-73
2022/04/06 16:58:22;;;;;;;2.85;2.60;;;;;;;8.31;69.56;98640.50;8606653;33;20147;-74
2022/04/06 17:03:27;;;;;;;4.28;3.60;;;;;;;8.56;68.81;98629.06;8596913;33;20411;-74
2022/04/06 17:08:31;;;;;;;5.25;4.05;;;;;;;8.36;69.59;98631.03;8600669;33;20477;-72
2022/04/06 17:13:35;;;;;;;3.45;3.15;;;;;;;8.52;68.67;98610.78;8599918;33;20569;-73
2022/04/06 17:18:38;;;;;;;5.15;3.20;;;;;;;8.46;68.47;98614.94;8604443;33;20671;-73
2022/04/06 17:23:41;;;;;;;3.45;2.70;;;;;;;8.12;69.27;98601.38;8605207;33;20633;-73
2022/04/06 17:28:45;;;;;;;3.20;2.60;;;;;;;8.47;67.95;98600.53;8599672;33;20312;-73
2022/04/06 17:33:48;;;;;;;4.18;2.70;;;;;;;8.59;68.07;98583.25;8599528;33;20504;-73
2022/04/06 17:38:52;;;;;;;2.83;2.38;;;;;;;8.31;68.12;98585.19;8603085;33;20498;-73
2022/04/06 17:43:56;;;;;;;5.25;2.97;;;;;;;8.55;67.59;98586.41;8606709;33;20492;-73
2022/04/06 17:49:02;;;;;;;3.25;2.40;;;;;;;8.18;68.72;98608.78;8611530;33;20427;-73
2022/04/06 17:54:06;;;;;;;5.97;3.63;;;;;;;8.37;69.71;98595.25;8620533;33;20494;-74
2022/04/06 17:59:11;;;;;;;3.30;2.70;;;;;;;7.49;73.29;98592.34;8619404;33;20418;-73
2022/04/06 18:04:14;;;;;;;4.15;3.08;;;;;;;7.70;72.84;98577.84;8623698;33;20193;-72
2022/04/06 18:09:17;;;;;;;8.27;3.55;;;;;;;8.02;72.13;98566.69;8623413;33;20580;-73
2022/04/06 18:14:23;;;;;;;5.50;3.75;;;;;;;7.78;71.84;98577.94;8624350;33;20646;-73
2022/04/06 18:19:26;;;;;;;6.13;3.25;;;;;;;8.18;70.85;98552.63;8625317;33;20191;-73
2022/04/06 18:24:29;;;;;;;3.17;2.33;;;;;;;8.06;71.20;98573.38;8646506;33;21444;-73
2022/04/06 18:29:33;;;;;;;4.70;3.13;;;;;;;7.91;72.41;98558.88;8641328;33;20167;-72
2022/04/06 18:34:37;;;;;;;6.55;3.45;;;;;;;7.64;74.17;98559.75;8606392;33;20510;-75
2022/04/06 18:39:41;;;;;;;5.57;3.22;;;;;;;7.54;74.73;98573.16;8613567;33;20680;-74
2022/04/06 18:44:46;;;;;;;4.07;3.20;;;;;;;7.33;76.91;98570.75;8604499;33;20179;-74
2022/04/06 18:49:49;;;;;;;6.05;4.28;;;;;;;7.41;78.29;98581.53;8603653;33;20173;-74
2022/04/06 18:54:55;;;;;;;4.57;2.97;;;;;;;7.12;78.57;98580.81;8603979;33;20480;-74
2022/04/06 18:59:59;;;;;;;5.72;3.50;;;;;;;7.11;80.90;98587.16;8609600;33;20281;-74
2022/04/06 19:05:05;;;;;;;4.07;3.60;;;;;;;6.75;82.17;98585.13;8605228;33;20426;-75
2022/04/06 19:10:12;;;;;;;7.07;4.60;;;;;;;7.06;82.13;98583.09;8604399;33;20447;-76
2022/04/06 19:15:18;;;;;;;7.72;4.80;;;;;;;6.71;83.49;98585.53;8605035;33;20414;-77
2022/04/06 19:20:25;;;;;;;7.00;5.10;;;;;;;7.04;83.60;98569.03;8603978;33;20169;-76
2022/04/06 19:25:28;;;;;;;8.60;5.90;;;;;;;6.84;84.05;98546.03;8601891;33;20792;-76
2022/04/06 19:30:32;;;;;;;8.27;5.55;;;;;;;6.71;83.86;98532.16;8601217;33;20186;-75
2022/04/06 19:35:35;;;;;;;8.77;5.97;;;;;;;6.73;83.68;98540.88;8602939;33;20545;-77
2022/04/06 19:40:39;;;;;;;4.63;3.47;;;;;;;6.62;83.21;98525.88;8602359;33;20473;-74
2022/04/06 19:45:43;;;;;;;7.10;4.93;;;;;;;6.82;82.15;98534.66;8603858;33;20139;-77
2022/04/06 19:50:46;;;;;;;4.18;3.47;;;;;;;6.72;82.28;98532.03;8604204;33;20494;-76
2022/04/06 19:55:49;;;;;;;8.00;4.03;;;;;;;6.83;81.60;98529.19;8601912;33;20523;-75
2022/04/06 20:00:54;;;;;;;7.20;4.75;;;;;;;6.98;80.89;98528.75;8602556;33;20541;-75
2022/04/06 20:05:57;;;;;;;4.53;3.10;;;;;;;7.01;80.64;98521.28;8606494;33;20155;-77
2022/04/06 20:11:00;;;;;;;7.40;4.40;;;;;;;7.16;80.13;98545.69;8605664;33;20178;-75
2022/04/06 20:16:05;;;;;;;8.50;5.00;;;;;;;7.06;82.19;98519.00;8605303;33;20696;-76
2022/04/06 20:21:09;;;;;;;10.30;5.07;;;;;;;6.86;83.61;98504.03;8606147;33;20313;-76
2022/04/06 20:26:12;;;;;;;14.75;5.97;;;;;;;7.02;84.22;98503.41;8602265;33;20167;-76
2022/04/06 20:31:17;;;;;;;9.07;4.78;;;;;;;6.73;84.58;98493.69;8604580;33;20227;-77
2022/04/06 20:36:22;;;;;;;8.63;4.63;;;;;;;6.50;85.00;98490.53;8603263;33;20510;-76
2022/04/06 20:41:26;;;;;;;9.68;6.32;;;;;;;6.78;83.81;98477.25;8601532;33;20197;-76
2022/04/06 20:46:30;;;;;;;7.82;4.93;;;;;;;6.76;84.14;98480.06;8598909;33;21590;-76
2022/04/06 20:51:34;;;;;;;9.65;5.88;;;;;;;6.93;83.07;98470.44;8600794;33;21051;-76
2022/04/06 20:56:37;;;;;;;11.25;5.70;;;;;;;7.04;82.99;98466.75;8586698;33;20424;-76
2022/04/06 21:01:42;;;;;;;8.90;6.22;;;;;;;6.89;84.47;98465.56;8572844;33;20486;-76
2022/04/06 21:06:46;;;;;;;8.70;5.20;;;;;;;6.75;84.59;98469.53;8602839;32;20431;-76
2022/04/06 21:11:49;;;;;;;11.65;6.43;;;;;;;6.66;86.02;98449.88;8625984;32;20177;-76
2022/04/06 21:16:53;;;;;;;7.43;4.95;;;;;;;6.33;86.47;98430.75;8631111;32;20143;-76
2022/04/06 21:21:56;;;;;;;8.35;5.18;;;;;;;6.69;85.04;98432.75;8636375;32;20561;-76
2022/04/06 21:27:00;;;;;;;7.95;5.18;;;;;;;6.76;83.74;98417.84;8601456;33;20439;-76
2022/04/06 21:32:06;;;;;;;8.30;5.82;;;;;;;7.06;82.39;98412.22;8603028;33;20458;-76
2022/04/06 21:37:10;;;;;;;8.75;5.80;;;;;;;7.02;81.69;98394.84;8597902;33;20154;-76
2022/04/06 21:42:13;;;;;;;8.80;4.70;;;;;;;7.18;80.39;98386.16;8599905;33;20637;-77
2022/04/06 21:47:17;;;;;;;8.05;5.07;;;;;;;7.22;79.97;98389.38;8603410;33;20189;-77
2022/04/06 21:52:20;;;;;;;9.93;6.05;;;;;;;7.17;79.90;98371.13;8606478;33;20471;-77
2022/04/06 21:57:23;;;;;;;11.73;6.07;;;;;;;7.37;79.11;98369.13;8606561;33;20536;-77
2022/04/06 22:02:28;;;;;;;10.57;6.47;;;;;;;7.33;79.31;98359.78;8607359;33;20406;-77
2022/04/06 22:07:31;;;;;;;13.98;6.85;;;;;;;7.56;78.63;98352.09;8606838;33;20243;-77
2022/04/06 22:12:34;;;;;;;10.02;6.68;;;;;;;7.66;78.16;98342.19;8609330;33;20266;-77
2022/04/06 22:17:39;;;;;;;8.63;5.82;;;;;;;7.54;78.14;98343.41;8607043;33;20770;-77
2022/04/06 22:22:42;;;;;;;7.72;5.22;;;;;;;7.59;77.90;98332.25;8607447;33;20613;-77
2022/04/06 22:27:45;;;;;;;12.65;6.80;;;;;;;7.82;78.23;98338.78;8605239;33;20250;-77
2022/04/06 22:32:49;;;;;;;11.32;5.78;;;;;;;7.26;81.51;98334.66;8605643;33;20189;-77
2022/04/06 22:37:53;;;;;;;10.60;6.55;;;;;;;7.35;81.77;98325.75;8605763;33;20951;-77
2022/04/06 22:42:56;;;;;;;11.98;6.28;;;;;;;7.38;81.44;98333.44;8607865;33;20215;-76
2022/04/06 22:48:00;;;;;;;6.60;5.15;;;;;;;7.28;80.38;98330.84;8600611;33;20186;-76
2022/04/06 22:53:04;;;;;;;10.48;6.10;;;;;;;7.34;79.42;98332.06;8605416;33;20474;-77
2022/04/06 22:58:07;;;;;;;8.88;6.20;;;;;;;7.62;78.36;98318.59;8620836;33;20124;-76
2022/04/06 23:03:11;;;;;;;5.78;3.88;;;;;;;7.44;78.29;98340.84;8620938;33;20139;-75
2022/04/06 23:08:14;;;;;;;12.38;5.90;;;;;;;7.83;77.30;98315.56;8631317;33;21027;-75
2022/04/06 23:13:17;;;;;;;10.15;7.00;;;;;;;7.91;76.60;98303.09;8605502;33;21132;-75
2022/04/06 23:18:22;;;;;;;10.38;5.53;;;;;;;7.83;76.43;98296.84;8598437;33;20471;-75
2022/04/06 23:23:25;;;;;;;12.85;6.20;;;;;;;7.91;76.14;98286.22;8600718;33;20236;-75
2022/04/06 23:28:28;;;;;;;9.20;5.70;;;;;;;7.98;75.86;98273.91;8602488;33;20251;-75
2022/04/06 23:33:34;;;;;;;5.72;4.07;;;;;;;7.83;75.27;98262.13;8602472;33;20446;-75
2022/04/06 23:38:37;;;;;;;9.77;4.93;;;;;;;7.92;74.65;98243.28;8624360;33;21394;-75
2022/04/06 23:43:40;;;;;;;9.90;6.10;;;;;;;8.13;74.83;98237.53;8602126;33;20147;-75
2022/04/06 23:48:44;;;;;;;8.93;4.88;;;;;;;8.06;73.93;98231.13;8599610;33;20139;-75
2022/04/06 23:53:49;;;;;;;6.50;4.78;;;;;;;8.04;73.78;98218.97;8598109;33;20419;-75
2022/04/06 23:58:52;;;;;;;9.02;5.95;;;;;;;8.30;72.99;98213.53;8597507;33;20186;-75
